createdAt,value
2023-06-17T00:00:10.938Z,97869.84
2023-06-17T00:02:38.358Z,97879.72
2023-06-17T00:05:06.792Z,97885.28
2023-06-17T00:07:34.250Z,97875.78
2023-06-17T00:10:01.972Z,97880.25
2023-06-17T00:12:32.636Z,97882.19
2023-06-17T00:15:04.078Z,97877.41
2023-06-17T00:17:31.882Z,97895.69
2023-06-17T00:20:08.953Z,97885.06
2023-06-17T00:22:36.796Z,97891.25
2023-06-17T00:25:04.774Z,97879.00
2023-06-17T00:27:32.287Z,97888.13
2023-06-17T00:30:00.851Z,97881.38
2023-06-17T00:32:32.777Z,97887.75
2023-06-17T00:35:00.156Z,97873.66
2023-06-17T00:37:27.562Z,97870.47
2023-06-17T00:39:55.437Z,97882.25
2023-06-17T00:42:23.109Z,97870.81
2023-06-17T00:44:51.176Z,97876.38
2023-06-17T00:47:18.388Z,97866.41
2023-06-17T00:49:46.336Z,97876.38
2023-06-17T00:54:44.230Z,97876.22
2023-06-17T00:57:14.236Z,97882.69
2023-06-17T00:59:43.566Z,97885.06
2023-06-17T01:02:11.901Z,97878.53
2023-06-17T01:04:43.474Z,97887.13
2023-06-17T01:07:24.127Z,97877.94
2023-06-17T01:09:57.133Z,97876.91
2023-06-17T01:12:27.233Z,97883.91
2023-06-17T01:14:55.770Z,97885.47
2023-06-17T01:17:23.059Z,97876.75
2023-06-17T01:19:50.340Z,97877.03
2023-06-17T01:22:18.886Z,97873.69
2023-06-17T01:24:49.948Z,97869.84
2023-06-17T01:27:21.249Z,97874.06
2023-06-17T01:29:50.110Z,97867.91
2023-06-17T01:32:17.717Z,97875.59
2023-06-17T01:34:48.320Z,97877.28
2023-06-17T01:37:17.299Z,97865.22
2023-06-17T01:39:45.729Z,97868.00
2023-06-17T01:42:17.947Z,97853.34
2023-06-17T01:44:46.360Z,97869.81
2023-06-17T01:47:13.992Z,97859.97
2023-06-17T01:49:41.160Z,97864.72
2023-06-17T01:52:10.729Z,97865.50
2023-06-17T01:54:39.001Z,97861.50
2023-06-17T01:57:06.623Z,97859.84
2023-06-17T01:59:34.799Z,97855.72
2023-06-17T02:02:02.873Z,97857.84
2023-06-17T02:04:30.187Z,97867.59
2023-06-17T02:06:58.603Z,97857.28
2023-06-17T02:09:25.952Z,97866.03
2023-06-17T02:11:53.341Z,97861.56
2023-06-17T02:14:20.767Z,97854.94
2023-06-17T02:16:48.496Z,97854.06
2023-06-17T02:19:16.399Z,97855.00
2023-06-17T02:21:43.790Z,97850.53
2023-06-17T02:24:11.467Z,97846.44
2023-06-17T02:26:40.869Z,97847.63
2023-06-17T02:29:08.538Z,97842.44
2023-06-17T02:31:36.175Z,97846.72
2023-06-17T02:34:03.971Z,97840.09
2023-06-17T02:36:31.643Z,97827.84
2023-06-17T02:39:00.989Z,97823.06
2023-06-17T02:41:29.000Z,97833.44
2023-06-17T02:43:56.490Z,97833.22
2023-06-17T02:46:25.745Z,97820.13
2023-06-17T02:48:53.430Z,97822.91
2023-06-17T02:51:21.565Z,97826.19
2023-06-17T02:53:49.342Z,97823.03
2023-06-17T02:56:19.731Z,97830.94
2023-06-17T02:58:47.460Z,97826.94
2023-06-17T03:01:15.273Z,97828.16
2023-06-17T03:03:46.120Z,97830.56
2023-06-17T03:06:14.763Z,97822.00
2023-06-17T03:08:45.956Z,97824.78
2023-06-17T03:11:13.323Z,97822.38
2023-06-17T03:13:43.339Z,97819.88
2023-06-17T03:16:25.610Z,97815.22
2023-06-17T03:18:54.632Z,97818.19
2023-06-17T03:21:22.883Z,97812.91
2023-06-17T03:23:52.390Z,97804.53
2023-06-17T03:26:21.639Z,97815.63
2023-06-17T03:28:51.037Z,97814.81
2023-06-17T03:31:21.852Z,97805.31
2023-06-17T03:33:52.084Z,97807.25
2023-06-17T03:36:20.874Z,97806.34
2023-06-17T03:38:48.750Z,97795.81
2023-06-17T03:41:18.384Z,97798.81
2023-06-17T03:43:48.922Z,97799.44
2023-06-17T03:46:16.462Z,97787.25
2023-06-17T03:48:44.415Z,97795.56
2023-06-17T03:51:12.122Z,97801.56
2023-06-17T03:53:40.119Z,97802.63
2023-06-17T03:56:09.133Z,97788.81
2023-06-17T03:58:37.230Z,97796.16
2023-06-17T04:01:07.250Z,97786.69
2023-06-17T04:03:35.840Z,97784.78
2023-06-17T04:06:03.836Z,97779.28
2023-06-17T04:08:33.823Z,97780.38
2023-06-17T04:11:01.229Z,97777.94
2023-06-17T04:13:29.086Z,97774.09
2023-06-17T04:15:57.641Z,97774.06
2023-06-17T04:18:29.078Z,97767.88
2023-06-17T04:20:57.769Z,97761.00
2023-06-17T04:23:29.656Z,97772.91
2023-06-17T04:25:57.936Z,97771.56
2023-06-17T04:28:26.326Z,97773.25
2023-06-17T04:30:54.241Z,97762.72
2023-06-17T04:33:25.523Z,97755.47
2023-06-17T04:35:53.423Z,97761.09
2023-06-17T04:38:22.012Z,97761.50
2023-06-17T04:40:54.209Z,97749.44
2023-06-17T04:43:25.331Z,97754.13
2023-06-17T04:45:53.032Z,97745.94
2023-06-17T04:48:22.161Z,97738.63
2023-06-17T04:50:49.899Z,97747.16
2023-06-17T04:53:19.236Z,97747.84
2023-06-17T04:55:46.718Z,97738.19
2023-06-17T04:58:15.196Z,97738.59
2023-06-17T05:00:51.997Z,97735.28
2023-06-17T05:03:26.622Z,97738.28
2023-06-17T05:05:54.535Z,97723.25
2023-06-17T05:08:26.508Z,97739.53
2023-06-17T05:10:54.284Z,97724.19
2023-06-17T05:13:22.794Z,97727.22
2023-06-17T05:15:51.039Z,97728.09
2023-06-17T05:18:18.763Z,97727.81
2023-06-17T05:20:46.685Z,97725.56
2023-06-17T05:23:14.212Z,97732.34
2023-06-17T05:25:42.181Z,97726.09
2023-06-17T05:28:12.289Z,97711.69
2023-06-17T05:30:40.890Z,97713.16
2023-06-17T05:33:09.827Z,97725.56
2023-06-17T05:35:38.319Z,97721.94
2023-06-17T05:38:06.205Z,97706.84
2023-06-17T05:40:34.370Z,97714.03
2023-06-17T05:43:02.220Z,97707.50
2023-06-17T05:45:29.986Z,97703.31
2023-06-17T05:47:59.341Z,97706.13
2023-06-17T05:50:29.239Z,97698.50
2023-06-17T05:52:58.921Z,97694.47
2023-06-17T05:55:26.126Z,97702.50
2023-06-17T05:57:53.924Z,97702.69
2023-06-17T06:00:23.462Z,97695.78
2023-06-17T06:02:51.767Z,97685.16
2023-06-17T06:05:19.537Z,97684.59
2023-06-17T06:07:47.595Z,97688.47
2023-06-17T06:10:16.501Z,97692.34
2023-06-17T06:12:48.173Z,97688.34
2023-06-17T06:15:15.733Z,97684.09
2023-06-17T06:17:43.290Z,97682.03
2023-06-17T06:20:13.491Z,97672.56
2023-06-17T06:22:41.600Z,97672.09
2023-06-17T06:25:09.962Z,97673.66
2023-06-17T06:27:37.757Z,97671.47
2023-06-17T06:30:06.704Z,97665.69
2023-06-17T06:32:39.465Z,97662.94
2023-06-17T06:35:07.754Z,97662.81
2023-06-17T06:37:35.589Z,97653.69
2023-06-17T06:40:06.612Z,97650.19
2023-06-17T06:42:40.468Z,97650.41
2023-06-17T06:45:22.007Z,97649.66
2023-06-17T06:47:49.732Z,97636.09
2023-06-17T06:50:17.645Z,97643.09
2023-06-17T06:52:49.387Z,97639.53
2023-06-17T06:55:16.689Z,97627.78
2023-06-17T06:57:46.294Z,97639.97
2023-06-17T07:00:15.212Z,97634.16
2023-06-17T07:02:44.350Z,97644.47
2023-06-17T07:05:12.270Z,97634.34
2023-06-17T07:07:45.980Z,97633.72
2023-06-17T07:10:13.581Z,97624.69
2023-06-17T07:12:41.701Z,97625.03
2023-06-17T07:15:11.282Z,97628.13
2023-06-17T07:17:41.899Z,97619.94
2023-06-17T07:20:09.803Z,97621.75
2023-06-17T07:22:40.195Z,97622.22
2023-06-17T07:25:08.133Z,97615.44
2023-06-17T07:27:36.321Z,97616.09
2023-06-17T07:30:04.636Z,97606.72
2023-06-17T07:32:32.508Z,97613.28
2023-06-17T07:35:01.011Z,97611.69
2023-06-17T07:37:29.240Z,97612.59
2023-06-17T07:39:57.898Z,97613.94
2023-06-17T07:42:26.105Z,97617.41
2023-06-17T07:44:53.653Z,97592.13
2023-06-17T07:47:22.173Z,97612.31
2023-06-17T07:49:54.138Z,97591.31
2023-06-17T07:52:22.638Z,97594.94
2023-06-17T07:54:52.186Z,97595.91
2023-06-17T07:57:20.006Z,97589.88
2023-06-17T07:59:47.645Z,97599.06
2023-06-17T08:02:15.352Z,97588.88
2023-06-17T08:04:43.217Z,97597.47
2023-06-17T08:07:11.772Z,97588.47
2023-06-17T08:09:39.926Z,97595.75
2023-06-17T08:12:08.527Z,97586.94
2023-06-17T08:14:36.780Z,97575.88
2023-06-17T08:17:04.857Z,97589.53
2023-06-17T08:19:32.591Z,97580.78
2023-06-17T08:22:00.040Z,97574.38
2023-06-17T08:24:28.084Z,97594.34
2023-06-17T08:26:55.413Z,97581.28
2023-06-17T08:29:23.513Z,97571.78
2023-06-17T08:31:52.092Z,97570.94
2023-06-17T08:34:20.213Z,97579.28
2023-06-17T08:36:50.902Z,97568.69
2023-06-17T08:39:18.826Z,97577.41
2023-06-17T08:41:46.641Z,97582.19
2023-06-17T08:44:15.054Z,97573.00
2023-06-17T08:46:43.961Z,97582.94
2023-06-17T08:49:13.035Z,97580.50
2023-06-17T08:51:41.149Z,97584.28
2023-06-17T08:54:08.750Z,97579.75
2023-06-17T08:56:36.388Z,97572.44
2023-06-17T08:59:04.445Z,97572.44
2023-06-17T09:01:32.666Z,97568.81
2023-06-17T09:04:00.589Z,97569.56
2023-06-17T09:06:30.744Z,97559.50
2023-06-17T09:08:58.961Z,97568.66
2023-06-17T09:11:28.392Z,97552.72
2023-06-17T09:13:57.441Z,97562.72
2023-06-17T09:16:25.890Z,97559.47
2023-06-17T09:19:05.529Z,97565.44
2023-06-17T09:21:33.587Z,97564.25
2023-06-17T09:24:02.163Z,97560.25
2023-06-17T09:26:30.977Z,97563.84
2023-06-17T09:29:04.866Z,97558.69
2023-06-17T09:31:32.624Z,97559.09
2023-06-17T09:34:04.275Z,97550.97
2023-06-17T09:36:32.093Z,97559.25
2023-06-17T09:38:59.971Z,97559.19
2023-06-17T09:41:27.721Z,97553.88
2023-06-17T09:43:55.618Z,97556.97
2023-06-17T09:46:30.959Z,97555.28
2023-06-17T09:48:58.746Z,97557.56
2023-06-17T09:51:26.391Z,97557.94
2023-06-17T09:53:55.581Z,97555.84
2023-06-17T09:56:23.483Z,97548.59
2023-06-17T09:58:51.742Z,97556.59
2023-06-17T10:01:20.019Z,97554.63
2023-06-17T10:03:47.686Z,97549.72
2023-06-17T10:06:17.522Z,97551.66
2023-06-17T10:08:45.113Z,97554.06
2023-06-17T10:11:18.909Z,97553.63
2023-06-17T10:13:54.534Z,97549.88
2023-06-17T10:16:22.712Z,97543.44
2023-06-17T10:18:50.229Z,97545.78
2023-06-17T10:21:17.718Z,97557.25
2023-06-17T10:23:45.821Z,97546.31
2023-06-17T10:26:14.853Z,97548.78
2023-06-17T10:28:47.832Z,97543.53
2023-06-17T10:31:32.300Z,97544.34
2023-06-17T10:34:03.344Z,97551.06
2023-06-17T10:36:30.754Z,97542.06
2023-06-17T10:39:04.646Z,97535.13
2023-06-17T10:41:46.886Z,97545.84
2023-06-17T10:44:36.607Z,97539.81
2023-06-17T10:47:06.842Z,97527.66
2023-06-17T10:49:40.367Z,97538.75
2023-06-17T10:52:12.847Z,97534.31
2023-06-17T10:54:56.493Z,97527.53
2023-06-17T10:57:34.850Z,97522.72
2023-06-17T11:00:11.830Z,97525.84
2023-06-17T11:02:39.646Z,97516.66
2023-06-17T11:05:07.725Z,97536.44
2023-06-17T11:07:35.787Z,97532.31
2023-06-17T11:10:04.124Z,97524.19
2023-06-17T11:12:31.827Z,97532.81
2023-06-17T11:15:01.038Z,97521.91
2023-06-17T11:17:29.659Z,97523.38
2023-06-17T11:19:57.209Z,97523.19
2023-06-17T11:22:24.716Z,97524.84
2023-06-17T11:24:52.252Z,97526.66
2023-06-17T11:27:20.096Z,97529.91
2023-06-17T11:29:47.641Z,97527.78
2023-06-17T11:32:14.946Z,97530.28
2023-06-17T11:34:42.627Z,97523.56
2023-06-17T11:37:12.560Z,97525.34
2023-06-17T11:39:40.124Z,97528.75
2023-06-17T11:42:08.703Z,97523.06
2023-06-17T11:44:36.857Z,97520.44
2023-06-17T11:47:08.467Z,97514.91
2023-06-17T11:49:36.735Z,97502.88
2023-06-17T11:52:08.006Z,97519.91
2023-06-17T11:54:35.746Z,97497.66
2023-06-17T11:57:04.206Z,97522.84
2023-06-17T11:59:32.236Z,97520.59
2023-06-17T12:01:59.631Z,97519.00
2023-06-17T12:04:27.749Z,97510.97
2023-06-17T12:06:55.436Z,97519.00
2023-06-17T12:09:23.625Z,97527.75
2023-06-17T12:11:51.259Z,97509.81
2023-06-17T12:14:20.683Z,97517.28
2023-06-17T12:16:48.517Z,97514.91
2023-06-17T12:19:22.586Z,97516.38
2023-06-17T12:21:50.397Z,97516.66
2023-06-17T12:24:18.742Z,97506.41
2023-06-17T12:26:46.437Z,97508.03
2023-06-17T12:29:24.422Z,97517.72
2023-06-17T12:31:54.524Z,97519.94
2023-06-17T12:34:21.962Z,97519.94
2023-06-17T12:36:50.024Z,97510.81
2023-06-17T12:39:17.390Z,97508.53
2023-06-17T12:41:44.821Z,97504.53
2023-06-17T12:44:12.662Z,97513.78
2023-06-17T12:46:41.957Z,97510.56
2023-06-17T12:49:09.917Z,97502.91
2023-06-17T12:51:37.529Z,97504.38
2023-06-17T12:54:06.090Z,97513.78
2023-06-17T12:56:33.728Z,97507.31
2023-06-17T12:59:02.149Z,97504.00
2023-06-17T13:01:30.062Z,97508.69
2023-06-17T13:03:58.693Z,97512.56
2023-06-17T13:06:27.308Z,97500.75
2023-06-17T13:08:55.205Z,97509.44
2023-06-17T13:11:22.988Z,97499.28
2023-06-17T13:13:51.527Z,97511.50
2023-06-17T13:16:18.656Z,97512.31
2023-06-17T13:18:45.839Z,97515.72
2023-06-17T13:21:14.101Z,97511.00
2023-06-17T13:23:42.741Z,97514.97
2023-06-17T13:26:11.715Z,97512.88
2023-06-17T13:28:39.973Z,97506.66
2023-06-17T13:31:07.655Z,97509.28
2023-06-17T13:33:35.688Z,97505.63
2023-06-17T13:36:03.862Z,97508.66
2023-06-17T13:38:31.583Z,97514.53
2023-06-17T13:40:59.140Z,97507.94
2023-06-17T13:43:26.369Z,97519.81
2023-06-17T13:45:54.025Z,97514.81
2023-06-17T13:48:22.489Z,97511.06
2023-06-17T13:50:53.091Z,97510.78
2023-06-17T13:53:20.754Z,97506.91
2023-06-17T13:55:49.605Z,97513.06
2023-06-17T13:58:17.473Z,97513.81
2023-06-17T14:00:45.417Z,97520.47
2023-06-17T14:03:15.241Z,97507.25
2023-06-17T14:05:44.287Z,97509.94
2023-06-17T14:08:11.848Z,97501.00
2023-06-17T14:10:39.649Z,97512.88
2023-06-17T14:13:06.902Z,97501.16
2023-06-17T14:15:34.834Z,97513.91
2023-06-17T14:18:02.711Z,97507.47
2023-06-17T14:20:30.554Z,97505.63
2023-06-17T14:22:59.485Z,97520.19
2023-06-17T14:25:27.493Z,97512.41
2023-06-17T14:27:54.884Z,97509.50
2023-06-17T14:30:22.541Z,97515.31
2023-06-17T14:32:51.332Z,97521.91
2023-06-17T14:35:19.031Z,97529.00
2023-06-17T14:37:47.573Z,97524.56
2023-06-17T14:40:15.515Z,97528.38
2023-06-17T14:42:43.166Z,97538.63
2023-06-17T14:45:12.414Z,97542.06
2023-06-17T14:47:40.789Z,97546.03
2023-06-17T14:50:09.744Z,97539.28
2023-06-17T14:52:37.811Z,97544.66
2023-06-17T14:55:06.310Z,97528.03
2023-06-17T14:57:34.067Z,97540.13
2023-06-17T15:00:01.919Z,97542.84
2023-06-17T15:02:54.219Z,97552.50
2023-06-17T15:05:21.862Z,97541.34
2023-06-17T15:07:49.797Z,97541.69
2023-06-17T15:10:18.035Z,97541.16
2023-06-17T15:12:46.221Z,97547.00
2023-06-17T15:15:14.493Z,97552.34
2023-06-17T15:17:42.208Z,97534.56
2023-06-17T15:20:11.234Z,97544.91
2023-06-17T15:22:39.116Z,97548.94
2023-06-17T15:25:07.890Z,97545.84
2023-06-17T15:27:35.851Z,97537.31
2023-06-17T15:30:03.715Z,97542.50
2023-06-17T15:32:31.648Z,97537.53
2023-06-17T15:34:59.691Z,97548.69
2023-06-17T15:37:30.077Z,97546.59
2023-06-17T15:39:57.505Z,97544.19
2023-06-17T15:42:25.509Z,97551.44
2023-06-17T15:44:53.035Z,97544.97
2023-06-17T15:47:20.655Z,97539.31
2023-06-17T15:49:49.620Z,97547.41
2023-06-17T15:52:17.203Z,97552.44
2023-06-17T15:54:45.182Z,97538.91
2023-06-17T15:57:15.012Z,97554.75
2023-06-17T15:59:43.032Z,97542.78
2023-06-17T16:02:10.708Z,97546.09
2023-06-17T16:04:39.635Z,97552.13
2023-06-17T16:07:13.327Z,97554.59
2023-06-17T16:09:49.066Z,97542.38
2023-06-17T16:12:24.245Z,97534.44
2023-06-17T16:14:52.236Z,97536.25
2023-06-17T16:17:20.541Z,97533.50
2023-06-17T16:19:48.291Z,97534.13
2023-06-17T16:22:16.829Z,97532.66
2023-06-17T16:24:44.563Z,97535.06
2023-06-17T16:27:14.246Z,97524.19
2023-06-17T16:29:41.924Z,97524.31
2023-06-17T16:32:09.981Z,97540.78
2023-06-17T16:34:38.005Z,97537.03
2023-06-17T16:37:06.213Z,97529.59
2023-06-17T16:39:33.863Z,97540.50
2023-06-17T16:42:02.364Z,97539.97
2023-06-17T16:44:32.065Z,97533.56
2023-06-17T16:46:59.488Z,97530.16
2023-06-17T16:49:27.246Z,97546.09
2023-06-17T16:51:54.623Z,97536.84
2023-06-17T16:54:22.358Z,97548.22
2023-06-17T16:56:49.844Z,97538.53
2023-06-17T16:59:17.499Z,97542.69
2023-06-17T17:01:45.028Z,97540.09
2023-06-17T17:04:13.765Z,97549.13
2023-06-17T17:06:42.464Z,97549.72
2023-06-17T17:09:10.348Z,97538.22
2023-06-17T17:11:39.084Z,97543.38
2023-06-17T17:14:07.752Z,97541.69
2023-06-17T17:16:56.466Z,97527.94
2023-06-17T17:19:35.195Z,97529.75
2023-06-17T17:22:12.339Z,97532.72
2023-06-17T17:24:45.019Z,97537.28
2023-06-17T17:27:13.144Z,97539.91
2023-06-17T17:29:44.435Z,97538.41
2023-06-17T17:32:13.647Z,97538.91
2023-06-17T17:34:41.410Z,97538.59
2023-06-17T17:37:08.869Z,97543.44
2023-06-17T17:39:36.727Z,97549.59
2023-06-17T17:42:04.550Z,97559.88
2023-06-17T17:44:32.072Z,97549.94
2023-06-17T17:46:59.605Z,97552.47
2023-06-17T17:49:31.766Z,97542.75
2023-06-17T17:51:59.710Z,97548.84
2023-06-17T17:54:27.031Z,97543.78
2023-06-17T17:56:55.009Z,97536.00
2023-06-17T17:59:22.368Z,97536.31
2023-06-17T18:01:50.012Z,97544.22
2023-06-17T18:04:17.885Z,97537.22
2023-06-17T18:06:45.765Z,97544.44
2023-06-17T18:09:13.251Z,97541.50
2023-06-17T18:11:41.429Z,97548.72
2023-06-17T18:14:08.933Z,97539.28
2023-06-17T18:16:36.317Z,97545.06
2023-06-17T18:19:05.356Z,97548.94
2023-06-17T18:21:33.411Z,97541.66
2023-06-17T18:24:04.187Z,97543.34
2023-06-17T18:26:32.038Z,97550.56
2023-06-17T18:29:00.242Z,97551.59
2023-06-17T18:31:27.750Z,97545.38
2023-06-17T18:33:56.342Z,97546.50
2023-06-17T18:36:23.778Z,97542.84
2023-06-17T18:38:58.247Z,97553.78
2023-06-17T18:41:27.481Z,97535.31
2023-06-17T18:43:57.456Z,97535.19
2023-06-17T18:46:26.077Z,97545.31
2023-06-17T18:48:53.767Z,97538.03
2023-06-17T18:51:21.616Z,97537.66
2023-06-17T18:53:49.236Z,97521.63
2023-06-17T18:56:17.105Z,97528.00
2023-06-17T18:58:45.061Z,97527.88
2023-06-17T19:01:13.162Z,97527.16
2023-06-17T19:03:43.823Z,97529.88
2023-06-17T19:06:11.698Z,97517.44
2023-06-17T19:08:38.945Z,97516.94
2023-06-17T19:11:07.027Z,97522.16
2023-06-17T19:13:34.879Z,97516.28
2023-06-17T19:16:02.331Z,97516.97
2023-06-17T19:18:30.682Z,97515.13
2023-06-17T19:20:58.045Z,97518.59
2023-06-17T19:23:25.968Z,97518.69
2023-06-17T19:25:53.542Z,97517.97
2023-06-17T19:28:21.237Z,97518.81
2023-06-17T19:30:49.531Z,97515.38
2023-06-17T19:33:17.277Z,97517.59
2023-06-17T19:35:44.678Z,97516.84
2023-06-17T19:38:12.238Z,97513.38
2023-06-17T19:40:40.109Z,97508.22
2023-06-17T19:43:07.781Z,97510.44
2023-06-17T19:45:36.940Z,97508.31
2023-06-17T19:48:05.445Z,97504.78
2023-06-17T19:50:33.996Z,97509.16
2023-06-17T19:53:03.085Z,97511.97
2023-06-17T19:55:30.922Z,97505.50
2023-06-17T19:57:58.305Z,97501.66
2023-06-17T20:00:26.148Z,97499.28
2023-06-17T20:02:56.362Z,97508.06
2023-06-17T20:05:23.904Z,97494.50
2023-06-17T20:07:51.815Z,97502.69
2023-06-17T20:10:19.434Z,97504.91
2023-06-17T20:12:48.025Z,97495.13
2023-06-17T20:15:15.820Z,97501.94
2023-06-17T20:17:43.903Z,97500.84
2023-06-17T20:20:14.094Z,97513.06
2023-06-17T20:22:42.300Z,97508.25
2023-06-17T20:25:10.815Z,97507.81
2023-06-17T20:27:41.627Z,97499.16
2023-06-17T20:30:09.340Z,97499.75
2023-06-17T20:32:36.539Z,97505.22
2023-06-17T20:35:04.348Z,97505.16
2023-06-17T20:37:32.080Z,97502.44
2023-06-17T20:39:59.800Z,97505.69
2023-06-17T20:42:27.723Z,97499.41
2023-06-17T20:44:55.604Z,97507.75
2023-06-17T20:47:24.082Z,97499.50
2023-06-17T20:49:51.567Z,97506.22
2023-06-17T20:52:19.171Z,97513.00
2023-06-17T20:54:46.836Z,97504.91
2023-06-17T20:57:14.108Z,97507.09
2023-06-17T20:59:41.401Z,97510.19
2023-06-17T21:02:09.090Z,97511.06
2023-06-17T21:04:36.731Z,97514.91
2023-06-17T21:07:05.015Z,97517.97
2023-06-17T21:09:33.027Z,97518.03
2023-06-17T21:12:01.053Z,97520.50
2023-06-17T21:14:29.265Z,97510.81
2023-06-17T21:16:56.791Z,97531.22
2023-06-17T21:19:24.030Z,97521.78
2023-06-17T21:21:51.659Z,97525.84
2023-06-17T21:24:20.706Z,97523.47
2023-06-17T21:26:48.610Z,97529.13
2023-06-17T21:29:16.282Z,97511.56
2023-06-17T21:31:44.295Z,97534.91
2023-06-17T21:34:11.691Z,97533.00
2023-06-17T21:36:39.368Z,97540.34
2023-06-17T21:39:09.028Z,97528.41
2023-06-17T21:41:36.935Z,97534.66
2023-06-17T21:44:04.711Z,97528.63
2023-06-17T21:46:32.218Z,97539.47
2023-06-17T21:49:00.243Z,97538.88
2023-06-17T21:51:27.639Z,97531.75
2023-06-17T21:53:55.563Z,97539.84
2023-06-17T21:56:23.015Z,97545.47
2023-06-17T21:58:50.615Z,97550.47
2023-06-17T22:01:18.509Z,97541.75
2023-06-17T22:03:46.331Z,97545.38
2023-06-17T22:06:14.301Z,97553.91
2023-06-17T22:08:43.932Z,97544.41
2023-06-17T22:11:12.316Z,97551.56
2023-06-17T22:13:40.330Z,97548.72
2023-06-17T22:16:08.134Z,97547.28
2023-06-17T22:18:36.465Z,97538.97
2023-06-17T22:21:04.020Z,97554.91
2023-06-17T22:23:31.634Z,97549.66
2023-06-17T22:25:59.896Z,97553.31
2023-06-17T22:28:27.839Z,97549.78
2023-06-17T22:30:55.833Z,97544.41
2023-06-17T22:33:23.291Z,97540.91
2023-06-17T22:35:51.054Z,97549.28
2023-06-17T22:38:19.498Z,97550.13
2023-06-17T22:40:46.953Z,97553.81
2023-06-17T22:43:15.944Z,97542.22
2023-06-17T22:45:43.758Z,97560.75
2023-06-17T22:48:11.318Z,97560.66
2023-06-17T22:50:38.618Z,97548.16
2023-06-17T22:53:06.122Z,97552.34
2023-06-17T22:55:33.503Z,97547.84
2023-06-17T22:58:01.271Z,97545.91
2023-06-17T23:00:28.523Z,97565.00
2023-06-17T23:02:56.933Z,97552.09
2023-06-17T23:05:24.517Z,97553.13
2023-06-17T23:07:52.142Z,97551.94
2023-06-17T23:10:19.949Z,97555.22
2023-06-17T23:12:47.895Z,97549.72
2023-06-17T23:15:15.957Z,97555.47
2023-06-17T23:17:43.845Z,97556.00
2023-06-17T23:20:11.196Z,97550.94
2023-06-17T23:22:38.966Z,97554.94
2023-06-17T23:25:08.373Z,97553.00
2023-06-17T23:27:36.668Z,97547.81
2023-06-17T23:30:04.702Z,97548.25
2023-06-17T23:32:32.715Z,97549.53
2023-06-17T23:35:00.862Z,97547.34
2023-06-17T23:37:28.632Z,97543.44
2023-06-17T23:39:56.738Z,97546.03
2023-06-17T23:42:24.470Z,97538.13
2023-06-17T23:44:52.986Z,97544.94
2023-06-17T23:47:20.321Z,97547.88
2023-06-17T23:49:47.966Z,97547.25
2023-06-17T23:52:15.469Z,97547.41
2023-06-17T23:54:43.078Z,97540.25
2023-06-17T23:57:11.196Z,97541.06
2023-06-17T23:59:39.464Z,97543.81
